Meteo Giornale » Osservazioni meteo Italia » Pisa-S Giusto

ore: 11:45 - Osservazioni Meteo Pisa-S Giusto
Lat. 43° 41' N Lon. 10° 23' E Alt. 2 metri s.l.m.

sereno Europe/Rome

12 °C

Sereno

Temp. 24 Ore

7 °C

18 °C

Nord

1.8 Km/h

Dew point 11 °C

Umidità 93 %

Visibilità  10 Km

Il sole sorge alle ore 07:00

Il sole tramonta alle ore 19:44

Data e Ora Cielo e Fenomeni T °C DP °C Um. % Pres. hPa Vis. km Vento km/h
Oggi h: 11:45 sereno Sereno 12 11 93 1027 10 N 1.8
Oggi h: 11:15 nuvoloso Nuvoloso 11 10 93 1027 8 N 5.5
Oggi h: 10:45 foschia Foschia 11 10 93 1027 3 N 3.7
Oggi h: 10:15 foschia Foschia 11 10 93 1026 3 N 1.8
Oggi h: 09:45 nebbia Banco di Nebbia Foschia 10 10 100 1026 0.8 N 3.7
Oggi h: 09:15 nebbia Banco di Nebbia Foschia 10 10 100 1026 0.8 E/SE 7.4
Oggi h: 08:45 foschia Foschia 10 9 93 1026 3 E/SE 7.4
Oggi h: 08:15 foschia Foschia 9 9 100 1026 4 N 5.5
Oggi h: 07:45 foschia Foschia 9 9 100 1026 3 N 5.5
Oggi h: 07:15 foschia Foschia 9 9 100 1026 3 N 0
Oggi h: 06:45 foschia Foschia 9 9 100 1025 3 N 5.5
Oggi h: 06:15 foschia Foschia 9 8 93 1025 2 N 0
Oggi h: 05:45 nebbia Nebbia 9 8 93 1025 0.6 N 0
Oggi h: 05:15 nebbia Nebbia 7 7 100 1025 0.3 N 3.7
Oggi h: 04:45 nebbia Nebbia 7 7 100 1025 0.3 N 5.5
Oggi h: 04:15 nebbia Nebbia 9 8 93 1025 0.05 N 5.5
Oggi h: 03:45 nebbia Nebbia 9 9 100 1025 0.05 N 3.7
Oggi h: 03:15 nebbia Nebbia 9 8 93 1025 0.05 N 5.5
Oggi h: 02:45 nebbia Nebbia 9 8 93 1025 0.05 N 5.5
Oggi h: 02:15 nebbia Nebbia 9 8 93 1025 0.05 N 0
Oggi h: 01:45 nebbia Nebbia 8 7 93 1025 0.05 N 5.5
Oggi h: 01:15 nebbia Nebbia 9 8 93 1025 0.05 N 0
Oggi h: 00:45 nebbia Nebbia 8 8 100 1024 0.05 N 5.5
Oggi h: 00:15 nebbia Nebbia 8 8 100 1024 0.05 N 3.7
Ieri h: 23:45 nebbia Nebbia 9 8 93 1024 0.2 N 5.5
Ieri h: 23:15 nebbia Nebbia 10 9 93 1024 0.2 N 3.7
Ieri h: 22:45 nebbia Nebbia 11 10 93 1024 0.2 N 3.7
Ieri h: 22:15 nebbia Banco di Nebbia Foschia 11 10 93 1024 0.8 N 0
Ieri h: 21:45 nebbia Banco di Nebbia Foschia 12 11 93 1024 0.8 N 5.5
Ieri h: 21:15 nebbia Nebbia a Strati 13 12 93 1024 6 N 0
Ieri h: 20:45 sereno Sereno 14 13 93 1023 10 N 5.5
Ieri h: 20:15 sereno Sereno 14 12 87 1023 10 SO 7.4
Ieri h: 19:45 sereno Sereno 15 12 82 1023 10 O/NO 9.3
Ieri h: 19:15 sereno Sereno 16 11 72 1023 10 O 9.3
Ieri h: 18:45 sereno Sereno 16 8 58 1023 10 O 11.1
Ieri h: 18:15 sereno Sereno 16 11 72 1023 10 O 13
Ieri h: 17:45 sereno Sereno 16 11 72 1023 10 N/NE 14.8
Ieri h: 17:15 sereno Sereno 16 10 67 1023 10 NO 16.7
Ieri h: 16:45 sereno Sereno 16 10 67 1023 10 O/NO 16.7
Ieri h: 16:15 sereno Sereno 17 9 59 1024 10 O 16.7
Ieri h: 15:45 sereno Sereno 17 9 59 1024 10 O/NO 14.8
Ieri h: 15:15 sereno Sereno 18 9 55 1024 10 O 16.7
Ieri h: 14:45 sereno Sereno 18 9 55 1024 10 O 16.7
Ieri h: 14:15 sereno Sereno 18 10 59 1024 10 O/NO 13
Ieri h: 13:45 sereno Sereno 18 10 59 1024 10 O/NO 13
Ieri h: 13:15 sereno Sereno 17 9 59 1025 10 O 16.7
Ieri h: 12:45 sereno Sereno 16 7 55 1026 10 O/SO 13